Terminal Aerodrome Forecast
Issued by NWS

Home | Current Version | Previous Version | Text Only | Print | Product List | Glossary Off
Versions: 1 2 3 4 5 6 7 8 9 10 11 12 13 14 15 16 17 18 19 20 21 22 23

951
FTUS43 KMPX 161422 AAB
TAFRWF
TAF AMD
KRWF 161422Z 1614/1712 13007KT 4SM BR OVC005
     FM161700 14007KT 6SM BR VCSH SCT006 OVC015
     FM162200 15007KT 4SM -TSRA BR SCT015 OVC025CB
      TEMPO 1622/1702 1SM TSRA BKN015CB
     FM170300 25006KT 4SM -SHRA BR OVC007
     FM170700 30015G23KT 3SM -SHRA BR OVC004=

USA.gov is the U.S. government's official web portal to all federal, state and local government web resources and services.